createdAt,value
2022-12-19T00:01:55.442Z,-2.40
2022-12-19T00:04:22.451Z,-1.90
2022-12-19T00:24:05.173Z,-2.00
2022-12-19T00:26:42.613Z,-4.00
2022-12-19T00:29:14.302Z,-3.20
2022-12-19T00:31:41.647Z,-2.00
2022-12-19T00:34:09.729Z,-2.40
2022-12-19T00:36:36.680Z,-1.50
2022-12-19T00:39:07.898Z,-2.50
2022-12-19T00:41:37.305Z,-2.10
2022-12-19T00:44:07.498Z,-2.50
2022-12-19T00:46:35.636Z,-2.10
2022-12-19T00:49:03.625Z,-3.40
2022-12-19T00:51:32.923Z,-0.10
2022-12-19T00:54:01.117Z,-2.10
2022-12-19T00:56:35.709Z,-3.90
2022-12-19T00:59:06.807Z,-2.10
2022-12-19T01:01:36.708Z,-2.50
2022-12-19T01:09:22.657Z,-0.30
2022-12-19T01:12:08.282Z,-3.70
2022-12-19T01:14:35.577Z,0.00
2022-12-19T01:17:02.394Z,-3.30
2022-12-19T01:19:29.185Z,-3.30
2022-12-19T01:21:56.181Z,-1.90
2022-12-19T01:24:23.954Z,0.10
2022-12-19T01:26:50.862Z,-1.90
2022-12-19T01:31:45.131Z,-3.30
2022-12-19T01:34:11.997Z,-2.80
2022-12-19T01:36:47.918Z,-3.40
2022-12-19T01:39:14.786Z,-0.80
2022-12-19T01:41:41.799Z,-3.40
2022-12-19T01:44:08.895Z,-2.00
2022-12-19T01:46:37.241Z,-1.70
2022-12-19T01:49:06.329Z,-2.30
2022-12-19T01:51:44.350Z,-2.20
2022-12-19T01:54:17.085Z,-3.10
2022-12-19T01:56:48.601Z,-2.60
2022-12-19T01:59:24.171Z,-1.70
2022-12-19T02:01:57.347Z,-2.20
2022-12-19T02:04:29.395Z,-2.10
2022-12-19T02:07:02.488Z,-2.00
2022-12-19T02:09:34.558Z,-2.40
2022-12-19T02:14:34.842Z,-1.70
2022-12-19T02:17:34.139Z,-1.90
2022-12-19T02:20:25.794Z,-2.50
2022-12-19T02:23:04.383Z,-1.60
2022-12-19T02:25:56.988Z,-1.60
2022-12-19T02:28:54.703Z,-2.70
2022-12-19T02:31:34.281Z,-3.40
2022-12-19T02:34:21.726Z,-1.50
2022-12-19T02:37:04.262Z,-3.10
2022-12-19T02:39:50.889Z,-1.60
2022-12-19T02:42:28.091Z,-2.00
2022-12-19T02:45:00.712Z,-1.50
2022-12-19T02:47:30.990Z,-1.50
2022-12-19T02:49:58.055Z,-2.60
2022-12-19T02:54:57.786Z,-1.40
2022-12-19T02:57:33.790Z,1.80
2022-12-19T03:00:07.140Z,-1.40
2022-12-19T03:03:00.522Z,-1.40
2022-12-19T03:05:56.897Z,-1.60
2022-12-19T03:08:52.282Z,-2.70
2022-12-19T03:11:23.436Z,-1.40
2022-12-19T03:13:56.854Z,-1.30
2022-12-19T03:16:25.025Z,-1.30
2022-12-19T03:18:53.474Z,-1.90
2022-12-19T03:21:32.013Z,-1.50
2022-12-19T03:23:59.242Z,-0.50
2022-12-19T03:26:30.458Z,-3.20
2022-12-19T03:29:16.114Z,-1.30
2022-12-19T03:31:45.497Z,0.60
2022-12-19T03:34:28.116Z,-0.50
2022-12-19T03:36:59.576Z,-1.30
2022-12-19T03:39:28.333Z,0.70
2022-12-19T03:42:16.598Z,-1.10
2022-12-19T03:44:43.848Z,1.80
2022-12-19T03:47:32.161Z,-0.30
2022-12-19T03:49:59.198Z,-1.20
2022-12-19T03:52:43.658Z,-2.00
2022-12-19T03:55:21.142Z,0.40
2022-12-19T03:57:52.198Z,0.60
2022-12-19T04:00:19.843Z,-1.20
2022-12-19T04:02:49.848Z,-1.20
2022-12-19T04:05:25.737Z,-1.20
2022-12-19T04:07:57.478Z,-1.40
2022-12-19T04:10:57.781Z,-1.20
2022-12-19T04:13:41.607Z,-1.30
2022-12-19T04:16:43.208Z,-1.20
2022-12-19T04:19:29.590Z,-1.10
2022-12-19T04:22:07.833Z,-3.30
2022-12-19T04:24:37.634Z,-0.70
2022-12-19T04:27:07.516Z,-2.90
2022-12-19T04:29:36.432Z,1.10
2022-12-19T04:32:05.465Z,-2.00
2022-12-19T04:34:33.030Z,-2.70
2022-12-19T04:37:03.571Z,-1.40
2022-12-19T04:39:30.682Z,-1.00
2022-12-19T04:41:57.585Z,-2.40
2022-12-19T04:44:24.681Z,-1.70
2022-12-19T04:46:51.569Z,-1.30
2022-12-19T04:49:18.904Z,-1.40
2022-12-19T04:54:13.192Z,0.90
2022-12-19T04:56:40.029Z,-0.90
2022-12-19T04:59:06.963Z,-2.00
2022-12-19T05:01:33.880Z,1.50
2022-12-19T05:04:04.351Z,0.10
2022-12-19T05:06:31.577Z,-1.70
2022-12-19T05:11:27.798Z,1.90
2022-12-19T05:16:22.522Z,-1.10
2022-12-19T05:18:49.701Z,-1.10
2022-12-19T05:21:16.712Z,0.90
2022-12-19T05:23:43.965Z,-1.10
2022-12-19T05:26:11.918Z,-1.00
2022-12-19T05:28:39.498Z,-1.00
2022-12-19T05:31:15.789Z,-2.50
2022-12-19T05:33:44.036Z,-2.00
2022-12-19T05:36:12.132Z,-0.90
2022-12-19T05:38:39.375Z,-0.90
2022-12-19T05:41:08.168Z,-2.60
2022-12-19T05:43:35.033Z,-0.90
2022-12-19T05:46:03.650Z,-1.10
2022-12-19T05:48:30.575Z,-1.90
2022-12-19T05:50:57.571Z,-1.40
2022-12-19T05:53:26.119Z,-0.80
2022-12-19T05:56:02.773Z,-0.70
2022-12-19T05:58:29.589Z,-1.90
2022-12-19T06:01:02.447Z,-0.50
2022-12-19T06:03:29.472Z,-1.30
2022-12-19T06:05:56.726Z,1.30
2022-12-19T06:08:23.555Z,-1.00
2022-12-19T06:16:01.572Z,-0.50
2022-12-19T06:18:30.632Z,-0.30
2022-12-19T06:21:02.603Z,-0.50
2022-12-19T06:23:31.282Z,-0.40
2022-12-19T06:25:59.153Z,0.70
2022-12-19T06:28:27.834Z,-0.50
2022-12-19T06:30:59.997Z,-2.30
2022-12-19T06:33:27.748Z,-0.90
2022-12-19T06:36:06.856Z,-1.60
2022-12-19T06:38:37.034Z,1.40
2022-12-19T06:41:23.001Z,-0.20
2022-12-19T06:43:53.395Z,-0.30
2022-12-19T06:46:20.889Z,3.10
2022-12-19T06:48:47.910Z,0.10
2022-12-19T06:51:21.100Z,-0.20
2022-12-19T06:53:48.486Z,-0.20
2022-12-19T06:56:16.419Z,-0.10
2022-12-19T06:58:43.405Z,2.10
2022-12-19T07:01:27.628Z,-0.10
2022-12-19T07:06:23.714Z,-1.30
2022-12-19T07:08:50.527Z,1.90
2022-12-19T07:11:17.427Z,0.10
2022-12-19T07:13:44.278Z,0.00
2022-12-19T07:16:11.227Z,-0.20
2022-12-19T07:18:39.756Z,-0.10
2022-12-19T07:21:08.620Z,1.70
2022-12-19T07:23:35.931Z,0.10
2022-12-19T07:26:03.367Z,0.30
2022-12-19T07:30:57.544Z,0.70
2022-12-19T07:33:24.421Z,0.30
2022-12-19T07:35:54.193Z,-0.20
2022-12-19T07:38:21.077Z,0.90
2022-12-19T07:40:47.935Z,0.20
2022-12-19T07:43:14.794Z,0.30
2022-12-19T07:45:42.827Z,1.00
2022-12-19T07:48:10.149Z,-0.10
2022-12-19T07:50:37.359Z,0.30
2022-12-19T07:53:04.465Z,0.20
2022-12-19T07:55:31.551Z,0.20
2022-12-19T07:57:59.636Z,0.60
2022-12-19T08:00:26.436Z,-0.80
2022-12-19T08:02:53.584Z,-0.60
2022-12-19T08:05:20.695Z,-0.40
2022-12-19T08:22:36.617Z,3.10
2022-12-19T08:25:03.799Z,0.40
2022-12-19T08:29:58.097Z,0.80
2022-12-19T08:32:24.991Z,0.40
2022-12-19T08:34:52.046Z,0.60
2022-12-19T08:37:18.851Z,0.80
2022-12-19T08:39:45.666Z,0.50
2022-12-19T08:42:12.530Z,0.50
2022-12-19T08:44:39.434Z,0.60
2022-12-19T08:47:06.336Z,0.70
2022-12-19T08:49:33.321Z,0.60
2022-12-19T08:52:00.114Z,1.30
2022-12-19T08:54:27.147Z,0.70
2022-12-19T08:56:54.181Z,0.10
2022-12-19T08:59:31.193Z,0.70
2022-12-19T09:02:00.754Z,2.80
2022-12-19T09:05:57.446Z,0.70
2022-12-19T09:07:19.815Z,0.70
2022-12-19T09:09:46.776Z,2.50
2022-12-19T09:12:15.241Z,0.50
2022-12-19T09:14:42.209Z,0.70
2022-12-19T09:17:09.276Z,0.70
2022-12-19T09:19:36.336Z,0.60
2022-12-19T09:22:03.651Z,0.70
2022-12-19T09:24:30.485Z,0.60
2022-12-19T09:29:24.966Z,0.80
2022-12-19T09:31:56.344Z,0.20
2022-12-19T09:34:36.735Z,0.70
2022-12-19T09:37:08.580Z,0.80
2022-12-19T09:39:36.259Z,0.70
2022-12-19T09:42:28.939Z,0.80
2022-12-19T09:45:11.420Z,0.80
2022-12-19T09:47:45.125Z,-0.10
2022-12-19T09:50:21.433Z,0.80
2022-12-19T09:52:56.388Z,1.00
2022-12-19T09:55:33.086Z,1.50
2022-12-19T09:58:05.940Z,0.90
2022-12-19T10:00:43.563Z,0.90
2022-12-19T10:03:27.188Z,-0.50
2022-12-19T10:07:09.485Z,-0.70
2022-12-19T10:12:43.778Z,1.00
2022-12-19T10:15:18.172Z,1.10
2022-12-19T10:18:12.584Z,0.90
2022-12-19T10:20:55.011Z,0.90
2022-12-19T10:23:40.670Z,1.10
2022-12-19T10:26:30.183Z,1.10
2022-12-19T10:29:23.352Z,1.20
2022-12-19T10:32:17.099Z,0.60
2022-12-19T10:34:46.511Z,0.90
2022-12-19T10:37:32.705Z,1.10
2022-12-19T10:40:34.663Z,0.50
2022-12-19T10:43:27.286Z,1.20
2022-12-19T10:46:03.998Z,1.20
2022-12-19T10:48:31.744Z,1.30
2022-12-19T10:53:34.092Z,1.30
2022-12-19T10:56:11.342Z,1.30
2022-12-19T11:01:24.181Z,1.40
2022-12-19T11:04:22.398Z,0.80
2022-12-19T11:06:52.047Z,0.80
2022-12-19T11:09:29.350Z,1.00
2022-12-19T11:14:49.930Z,1.40
2022-12-19T11:18:47.180Z,1.40
2022-12-19T11:25:09.127Z,1.40
2022-12-19T11:29:18.727Z,4.00
2022-12-19T11:30:05.876Z,0.90
2022-12-19T11:30:38.457Z,4.80
2022-12-19T11:33:18.438Z,1.50
2022-12-19T11:35:50.389Z,2.00
2022-12-19T11:38:41.513Z,1.80
2022-12-19T11:41:22.337Z,1.70
2022-12-19T11:46:42.232Z,1.80
2022-12-19T11:49:35.716Z,1.90
2022-12-19T11:55:35.115Z,3.90
2022-12-19T11:58:33.390Z,1.80
2022-12-19T12:01:39.631Z,1.90
2022-12-19T12:04:37.310Z,1.70
2022-12-19T12:09:35.209Z,2.00
2022-12-19T12:19:52.340Z,1.90
2022-12-19T12:28:47.950Z,2.00
2022-12-19T12:31:17.330Z,2.00
2022-12-19T12:35:17.483Z,2.10
2022-12-19T12:42:47.349Z,2.20
2022-12-19T12:45:38.324Z,2.30
2022-12-19T14:18:49.775Z,2.70
2022-12-19T14:22:03.798Z,2.80
2022-12-19T14:24:32.646Z,2.70
2022-12-19T14:28:25.489Z,3.20
2022-12-19T14:30:35.337Z,4.50
2022-12-19T14:33:45.065Z,2.80
2022-12-19T14:36:16.001Z,3.70
2022-12-19T14:39:42.076Z,2.90
2022-12-19T14:43:57.550Z,3.40
2022-12-19T14:52:25.291Z,2.90
2022-12-19T14:54:00.574Z,3.10
2022-12-19T14:54:29.933Z,3.00
2022-12-19T14:58:50.730Z,3.00
2022-12-19T15:01:08.563Z,3.30
2022-12-19T15:03:33.870Z,3.60
2022-12-19T15:07:05.214Z,3.20
2022-12-19T15:10:58.387Z,3.10
2022-12-19T15:14:46.908Z,3.10
2022-12-19T15:15:36.774Z,3.00
2022-12-19T15:18:16.117Z,3.10
2022-12-19T15:20:43.061Z,6.40
2022-12-19T15:23:10.084Z,3.20
2022-12-19T15:26:03.466Z,3.60
2022-12-19T15:28:42.288Z,3.60
2022-12-19T15:31:39.876Z,3.30
2022-12-19T15:34:40.053Z,3.10
2022-12-19T15:37:13.139Z,3.60
2022-12-19T15:39:43.894Z,3.90
2022-12-19T15:42:23.485Z,4.30
2022-12-19T15:44:53.399Z,4.30
2022-12-19T15:47:33.725Z,3.30
2022-12-19T15:50:06.651Z,3.40
2022-12-19T15:52:33.771Z,3.50
2022-12-19T15:55:00.634Z,2.30
2022-12-19T15:57:40.587Z,3.50
2022-12-19T16:00:14.603Z,3.00
2022-12-19T16:03:23.683Z,3.70
2022-12-19T16:05:29.440Z,3.60
2022-12-19T16:07:59.956Z,7.00
2022-12-19T16:10:31.791Z,3.50
2022-12-19T16:15:32.867Z,1.10
2022-12-19T16:18:03.218Z,3.70
2022-12-19T16:20:43.958Z,2.80
2022-12-19T16:23:11.761Z,3.80
2022-12-19T16:25:40.787Z,4.20
2022-12-19T16:28:16.597Z,4.10
2022-12-19T16:33:21.511Z,4.40
2022-12-19T16:36:06.233Z,3.10
2022-12-19T16:38:34.357Z,4.10
2022-12-19T16:41:01.848Z,3.80
2022-12-19T16:43:38.528Z,3.60
2022-12-19T16:46:07.122Z,3.90
2022-12-19T16:48:35.878Z,3.80
2022-12-19T16:51:09.903Z,4.80
2022-12-19T16:53:39.394Z,3.40
2022-12-19T16:56:51.675Z,4.30
2022-12-19T16:59:22.609Z,4.50
2022-12-19T17:01:51.069Z,4.10
2022-12-19T17:04:23.905Z,4.10
2022-12-19T17:06:54.115Z,5.30
2022-12-19T17:09:23.724Z,5.50
2022-12-19T17:12:01.291Z,4.10
2022-12-19T17:14:34.221Z,4.20
2022-12-19T17:17:01.276Z,4.20
2022-12-19T17:19:39.049Z,4.20
2022-12-19T17:22:16.870Z,4.30
2022-12-19T17:24:48.068Z,4.30
2022-12-19T17:27:16.811Z,3.80
2022-12-19T17:29:44.048Z,4.40
2022-12-19T17:32:23.341Z,5.20
2022-12-19T17:34:51.802Z,3.80
2022-12-19T17:37:18.823Z,4.50
2022-12-19T17:39:45.821Z,4.50
2022-12-19T17:42:19.783Z,5.50
2022-12-19T17:44:46.761Z,4.50
2022-12-19T17:47:16.395Z,4.60
2022-12-19T17:49:43.618Z,4.10
2022-12-19T17:52:19.484Z,4.50
2022-12-19T17:54:46.703Z,4.70
2022-12-19T17:57:15.802Z,4.60
2022-12-19T17:59:44.461Z,5.20
2022-12-19T18:02:26.485Z,6.20
2022-12-19T18:04:53.656Z,4.70
2022-12-19T18:09:48.562Z,1.50
2022-12-19T18:17:20.673Z,4.70
2022-12-19T18:19:47.836Z,4.80
2022-12-19T18:22:38.166Z,4.90
2022-12-19T18:25:16.602Z,5.40
2022-12-19T18:27:44.020Z,5.10
2022-12-19T18:31:03.560Z,5.10
2022-12-19T18:33:37.811Z,5.10
2022-12-19T18:36:07.629Z,7.10
2022-12-19T18:38:35.005Z,5.10
2022-12-19T18:41:02.108Z,4.80
2022-12-19T18:46:00.185Z,5.10
2022-12-19T18:48:34.629Z,3.80
2022-12-19T18:51:02.239Z,6.50
2022-12-19T18:53:38.514Z,3.90
2022-12-19T19:01:18.471Z,5.90
2022-12-19T19:03:53.905Z,5.30
2022-12-19T19:06:34.262Z,6.20
2022-12-19T19:09:04.691Z,5.50
2022-12-19T19:14:17.809Z,5.30
2022-12-19T19:16:47.880Z,5.40
2022-12-19T19:19:18.179Z,5.30
2022-12-19T19:21:48.557Z,6.40
2022-12-19T19:24:22.112Z,7.30
2022-12-19T19:29:18.948Z,4.50
2022-12-19T19:31:50.089Z,5.40
2022-12-19T19:34:40.410Z,7.00
2022-12-19T19:37:10.399Z,6.50
2022-12-19T19:39:37.420Z,6.50
2022-12-19T19:42:04.560Z,6.50
2022-12-19T19:44:32.409Z,5.50
2022-12-19T19:46:59.630Z,6.50
2022-12-19T19:49:26.739Z,5.50
2022-12-19T19:51:58.684Z,5.50
2022-12-19T19:54:29.471Z,5.50
2022-12-19T19:56:56.578Z,5.60
2022-12-19T20:01:58.879Z,6.20
2022-12-19T20:04:26.096Z,6.00
2022-12-19T20:06:53.804Z,7.40
2022-12-19T20:09:21.446Z,5.40
2022-12-19T20:12:12.286Z,6.10
2022-12-19T20:14:47.226Z,6.30
2022-12-19T20:17:14.648Z,9.40
2022-12-19T20:19:41.828Z,5.00
2022-12-19T20:22:08.921Z,5.60
2022-12-19T20:24:35.994Z,5.60
2022-12-19T20:27:03.018Z,5.60
2022-12-19T20:29:30.495Z,6.30
2022-12-19T20:31:57.543Z,6.90
2022-12-19T20:34:25.721Z,5.60
2022-12-19T20:36:52.839Z,6.80
2022-12-19T20:39:23.162Z,5.60
2022-12-19T20:41:53.383Z,5.60
2022-12-19T20:44:24.338Z,6.00
2022-12-19T20:46:52.729Z,5.70
2022-12-19T20:49:21.900Z,5.60
2022-12-19T20:51:48.791Z,5.60
2022-12-19T20:54:16.509Z,6.90
2022-12-19T20:56:44.465Z,5.80
2022-12-19T20:59:12.743Z,5.30
2022-12-19T21:01:40.852Z,5.90
2022-12-19T21:07:18.233Z,5.60
2022-12-19T21:09:50.213Z,6.00
2022-12-19T21:12:17.143Z,7.10
2022-12-19T21:14:46.325Z,5.60
2022-12-19T21:17:18.093Z,5.60
2022-12-19T21:19:45.124Z,6.40
2022-12-19T21:22:12.233Z,5.30
2022-12-19T21:24:39.230Z,5.60
2022-12-19T21:27:06.283Z,5.10
2022-12-19T21:32:01.090Z,5.60
2022-12-19T21:34:28.054Z,5.90
2022-12-19T21:36:55.199Z,6.00
2022-12-19T21:39:30.384Z,5.70
2022-12-19T21:41:57.431Z,5.70
2022-12-19T21:44:24.282Z,5.80
2022-12-19T21:49:18.801Z,5.20
2022-12-19T21:51:45.838Z,7.00
2022-12-19T21:54:12.941Z,5.60
2022-12-19T21:56:44.694Z,5.70
2022-12-19T21:59:31.631Z,5.70
2022-12-19T22:02:18.592Z,6.00
2022-12-19T22:04:45.724Z,6.70
2022-12-19T22:07:12.699Z,1.30
2022-12-19T22:09:39.991Z,6.00
2022-12-19T22:12:09.022Z,5.60
2022-12-19T22:14:38.891Z,3.60
2022-12-19T22:17:06.126Z,4.10
2022-12-19T22:19:33.564Z,5.00
2022-12-19T22:22:00.939Z,5.00
2022-12-19T22:24:29.624Z,6.80
2022-12-19T22:26:59.595Z,7.10
2022-12-19T22:29:26.696Z,5.40
2022-12-19T22:31:53.665Z,6.60
2022-12-19T22:34:21.637Z,6.10
2022-12-19T22:36:49.078Z,5.90
2022-12-19T22:39:19.136Z,5.90
2022-12-19T22:42:01.566Z,7.00
2022-12-19T22:44:28.725Z,6.00
2022-12-19T22:46:55.707Z,5.80
2022-12-19T22:49:22.850Z,6.30
2022-12-19T22:51:49.966Z,5.90
2022-12-19T22:54:17.063Z,5.20
2022-12-19T22:59:12.628Z,5.90
2022-12-19T23:01:42.556Z,5.90
2022-12-19T23:04:11.278Z,5.90
2022-12-19T23:06:39.019Z,6.60
2022-12-19T23:09:07.932Z,8.50
2022-12-19T23:11:38.308Z,5.80
2022-12-19T23:14:08.465Z,4.40
2022-12-19T23:19:04.937Z,5.90
2022-12-19T23:21:32.401Z,5.80
2022-12-19T23:24:01.502Z,7.20
2022-12-19T23:26:31.468Z,6.30
2022-12-19T23:29:00.619Z,5.80
2022-12-19T23:36:52.688Z,6.00
2022-12-19T23:39:12.455Z,5.90
2022-12-19T23:41:40.015Z,5.90
2022-12-19T23:44:08.670Z,7.60
2022-12-19T23:46:36.236Z,5.90
2022-12-19T23:49:03.949Z,6.70
2022-12-19T23:51:32.614Z,7.00
2022-12-19T23:56:31.892Z,6.10
